Latest Coastal Weather Observations for Warruwi

IDD60701

Issued at 10:11 pm CST Thursday 2 July 2015 (issued every 10 minutes, with the page automatically refreshed every 10 minutes)

About coastal observations | Map of coastal stations | Coastal observations for NT | Marine services | Other Formats
Station Details ID: 014401 Name: WARRUWI AIRPORT Lat: -11.65 Lon: 133.38 Height: 19.2 m
Data from the previous 72 hours. | See also: Recent months at Warruwi
Date/Time
CST
Temp

°C
Wind Pressure Rain
since 9am
mm
Weather Cloud Vis
km
Sea
Height
m
Swell
Dir
 
Speed
knots
Gust
knots
hPa Trend Height
m
Period
s
Dir
02/10:00pm 26.2 ESE 9 11 1016.3 - 0.0 - - - - - - -
02/09:30pm 26.4 ESE 9 13 1016.1 - 0.0 - - - - - - -
02/09:00pm 25.6 E 5 7 1015.8 - 0.0 - - - - - - -
02/08:30pm 25.7 E 4 8 1015.6 - 0.0 - - - - - - -
02/08:00pm 25.7 E 5 7 1015.2 - 0.0 - - - - - - -
02/07:30pm 25.9 E 6 9 1014.9 - 0.0 - - - - - - -
02/07:00pm 26.1 ENE 5 7 1014.6 - 0.0 - - - - - - -
02/06:30pm 26.3 ENE 5 8 1014.3 - 0.0 - - - - - - -
02/06:00pm 26.5 ENE 6 8 1014.1 - 0.0 - - - - - - -
02/05:30pm 26.9 E 7 11 1013.9 - 0.0 - - - - - - -
02/05:00pm 27.2 E 9 13 1013.8 - 0.0 - - - - - - -
02/04:30pm 27.8 E 8 11 1013.7 - 0.0 - - - - - - -
02/04:00pm 28.1 E 9 12 1013.8 - 0.0 - - - - - - -
02/03:30pm 28.1 E 9 13 1013.9 - 0.0 - - - - - - -
02/03:00pm 29.0 E 9 13 1013.9 - 0.0 - - - - - - -
02/02:30pm 28.3 E 10 14 1014.2 - 0.0 - - - - - - -
02/02:00pm 29.6 E 10 15 1014.6 - 0.0 - - - - - - -
02/01:30pm 29.4 ESE 10 15 1015.1 - 0.0 - - - - - - -
02/01:00pm 29.8 ESE 11 15 1015.7 - 0.0 - - - - - - -
02/12:30pm 29.6 ESE 12 16 1016.0 - 0.0 - - - - - - -
02/12:00pm 28.7 ESE 13 18 1016.5 - 0.0 - - - - - - -
02/11:30am 28.9 ESE 12 16 1017.0 - 0.0 - - - - - - -
02/11:00am 28.2 ESE 13 18 1017.2 - 0.0 - - - - - - -
02/10:30am 27.0 ESE 13 17 1017.6 - 0.0 - - - - - - -
02/10:00am 26.9 ESE 11 15 1017.8 - 0.0 - - - - - - -
02/09:30am 25.9 ESE 13 18 1017.6 - 0.0 - - - - - - -
02/09:00am 25.0 ESE 12 16 1017.6 - 0.0 - - - - - - -
02/08:30am 24.5 ESE 11 17 1017.2 - 0.0 - - - - - - -
02/08:00am 24.2 SE 10 15 1017.0 - 0.0 - - - - - - -
02/07:30am 23.6 SE 8 13 1016.7 - 0.0 - - - - - - -
02/07:00am 23.2 SE 8 13 1016.3 - 0.0 - - - - - - -
02/06:30am 23.0 SE 8 13 1016.2 - 0.0 - - - - - - -
02/06:00am 23.1 SE 8 12 1016.1 - 0.0 - - - - - - -
02/05:30am 23.2 ESE 10 16 1015.9 - 0.0 - - - - - - -
02/05:00am 23.3 SE 9 12 1015.8 - 0.0 - - - - - - -
02/04:30am 23.7 SE 10 14 1015.7 - 0.0 - - - - - - -
02/04:00am 23.6 SE 10 15 1015.8 - 0.0 - - - - - - -
02/03:30am 23.6 SE 11 17 1015.8 - 0.0 - - - - - - -
02/03:00am 23.7 SE 10 17 1015.9 - 0.0 - - - - - - -
02/02:30am 23.7 SE 9 15 1016.1 - 0.0 - - - - - - -
02/02:00am 23.6 SE 10 15 1016.5 - 0.0 - - - - - - -
02/01:30am 23.6 ESE 9 15 1016.7 - 0.0 - - - - - - -
02/01:00am 23.6 SE 9 13 1016.9 - 0.0 - - - - - - -
02/12:30am 23.5 SE 8 13 1017.0 - 0.0 - - - - - - -
02/12:00am 23.6 SE 10 16 1017.2 - 0.0 - - - - - - -
 
Date/Time
CST
Temp

°C
Wind Pressure Rain
since 9am
mm
Weather Cloud Vis
km
Sea
Height
m
Swell
Dir
 
Speed
knots
Gust
knots
hPa Trend Height
m
Period
s
Dir
01/11:30pm 23.7 SE 11 17 1017.4 - 0.0 - - - - - - -
01/11:00pm 23.7 ESE 11 18 1017.5 - 0.0 - - - - - - -
01/10:30pm 23.5 SE 12 17 1017.6 - 0.0 - - - - - - -
01/10:00pm 23.7 SE 12 19 1017.5 - 0.0 - - - - - - -
01/09:30pm 23.6 SE 12 18 1017.5 - 0.0 - - - - - - -
01/09:00pm 23.8 SE 10 15 1017.2 - 0.0 - - - - - - -
01/08:30pm 23.7 SSE 9 13 1016.7 - 0.0 - - - - - - -
01/08:00pm 23.9 SE 11 18 1016.4 - 0.0 - - - - - - -
01/07:30pm 24.0 SSE 9 15 1016.1 - 0.0 - - - - - - -
01/07:00pm 24.3 SE 11 17 1015.7 - 0.0 - - - - - - -
01/06:30pm 24.9 SSE 10 19 1015.4 - 0.0 - - - - - - -
01/06:00pm 25.7 SE 12 18 1015.1 - 0.0 - - - - - - -
01/05:30pm 26.7 SE 12 19 1014.7 - 0.0 - - - - - - -
01/05:00pm 27.4 SE 9 14 1014.4 - 0.0 - - - - - - -
01/04:30pm 27.9 ESE 10 17 1013.9 - 0.0 - - - - - - -
01/04:00pm 28.5 E 7 12 1013.8 - 0.0 - - - - - - -
01/03:30pm 29.5 E 7 10 1014.0 - 0.0 - - - - - - -
01/03:00pm 29.1 E 7 10 1014.2 - 0.0 - - - - - - -
01/02:30pm 29.2 ESE 9 14 1014.4 - 0.0 - - - - - - -
01/02:00pm 30.0 ESE 8 15 1014.8 - 0.0 - - - - - - -
01/01:30pm 28.5 E 6 9 1015.3 - 0.0 - - - - - - -
01/01:00pm 27.9 E 6 10 1016.0 - 0.0 - - - - - - -
01/12:30pm 28.8 E 6 9 1016.3 - 0.0 - - - - - - -
01/12:00pm 27.7 ESE 7 10 1016.8 - 0.0 - - - - - - -
01/11:30am 27.4 SE 6 10 1017.2 - 0.0 - - - - - - -
01/11:00am 27.1 SE 6 10 1017.7 - 0.0 - - - - - - -
01/10:30am 25.9 S 6 9 1017.9 - 0.0 - - - - - - -
01/10:00am 25.8 SE 5 8 1018.0 - 0.0 - - - - - - -
01/09:30am 25.1 SSE 6 10 1018.3 - 0.0 - - - - - - -
01/09:00am 24.6 SSE 7 10 1018.3 - 0.0 - - - - - - -
01/08:30am 23.8 S 4 5 1017.9 - 0.0 - - - - - - -
01/08:00am 23.4 SSE 5 7 1017.6 - 0.0 - - - - - - -
01/07:30am 22.4 SSE 3 6 1017.2 - 0.0 - - - - - - -
01/07:00am 21.6 SSE 3 4 1017.0 - 0.0 - - - - - - -
01/06:30am 21.4 S 2 3 1016.8 - 0.0 - - - - - - -
01/06:00am 21.5 SSE 1 2 1016.6 - 0.0 - - - - - - -
01/05:30am 22.3 SSE 3 5 1016.4 - 0.0 - - - - - - -
01/05:00am 22.2 S 2 4 1016.5 - 0.0 - - - - - - -
01/04:30am 22.2 S 3 5 1016.3 - 0.0 - - - - - - -
01/04:00am 22.0 S 2 3 1016.3 - 0.0 - - - - - - -
01/03:30am 22.2 SSW 2 3 1016.0 - 0.0 - - - - - - -
01/03:00am 21.6 CALM 0 0 1016.4 - 0.0 - - - - - - -
01/02:30am 21.7 CALM 0 0 1016.4 - 0.0 - - - - - - -
01/02:00am 21.8 CALM 0 0 1016.5 - 0.0 - - - - - - -
01/01:30am 22.0 CALM 0 0 1016.8 - 0.0 - - - - - - -
01/01:00am 22.2 CALM 0 0 1017.1 - 0.0 - - - - - - -
01/12:30am 22.5 CALM 0 0 1017.1 - 0.0 - - - - - - -
01/12:00am 22.6 CALM 0 0 1017.3 - 0.0 - - - - - - -
 
Date/Time
CST
Temp

°C
Wind Pressure Rain
since 9am
mm
Weather Cloud Vis
km
Sea
Height
m
Swell
Dir
 
Speed
knots
Gust
knots
hPa Trend Height
m
Period
s
Dir
30/11:30pm 22.8 CALM 0 0 1017.3 - 0.0 - - - - - - -
30/11:00pm 23.0 CALM 0 0 1017.2 - 0.0 - - - - - - -
30/10:30pm 22.9 CALM 0 0 1017.2 - 0.0 - - - - - - -
30/10:00pm 23.1 CALM 0 0 1017.0 - 0.0 - - - - - - -
30/09:30pm 22.8 CALM 0 2 1016.6 - 0.0 - - - - - - -
30/09:00pm 23.1 NNE 1 2 1016.2 - 0.0 - - - - - - -
30/08:30pm 23.7 CALM 0 1 1015.8 - 0.0 - - - - - - -
30/08:00pm 23.9 NE 2 3 1015.4 - 0.0 - - - - - - -
30/07:30pm 24.0 ENE 2 2 1015.0 - 0.0 - - - - - - -
30/07:00pm 24.5 NE 2 3 1014.6 - 0.0 - - - - - - -
30/06:30pm 24.9 CALM 0 0 1014.3 - 0.0 - - - - - - -
30/06:00pm 26.0 NE 2 4 1014.0 - 0.0 - - - - - - -
30/05:30pm 27.0 ENE 2 4 1013.9 - 0.0 - - - - - - -
30/05:00pm 27.4 ENE 4 7 1013.7 - 0.0 - - - - - - -
30/04:30pm 28.0 E 6 9 1013.6 - 0.0 - - - - - - -
30/04:00pm 28.4 E 5 8 1013.6 - 0.0 - - - - - - -
30/03:30pm 28.8 E 5 9 1013.6 - 0.0 - - - - - - -
30/03:00pm 28.5 E 6 9 1014.0 - 0.0 - - - - - - -
30/02:30pm 28.7 E 6 8 1014.3 - 0.0 - - - - - - -
30/02:00pm 28.8 ENE 5 9 1014.7 - 0.0 - - - - - - -
30/01:30pm 29.1 E 5 8 1015.2 - 0.0 - - - - - - -
30/01:00pm 28.9 E 5 8 1015.6 - 0.0 - - - - - - -
30/12:30pm 28.9 E 5 7 1015.9 - 0.0 - - - - - - -
30/12:00pm 28.2 SE 7 10 1016.2 - 0.0 - - - - - - -
30/11:30am 27.5 ESE 4 6 1016.5 - 0.0 - - - - - - -
30/11:00am 26.9 E 4 6 1016.8 - 0.0 - - - - - - -
30/10:30am 26.8 ESE 5 8 1017.2 - 0.0 - - - - - - -
30/10:00am 25.8 ESE 6 8 1017.4 - 0.0 - - - - - - -
30/09:30am 25.3 SE 6 9 1017.4 - 0.0 - - - - - - -
30/09:00am 24.4 SE 7 9 1017.2 - 0.0 - - - - - - -
30/08:30am 23.7 SE 6 9 1017.2 - 0.0 - - - - - - -
30/08:00am 23.2 SE 5 8 1017.1 - 0.0 - - - - - - -
30/07:30am 22.2 SE 5 8 1016.6 - 0.0 - - - - - - -
30/07:00am 21.5 SE 4 5 1016.2 - 0.0 - - - - - - -
30/06:30am 21.1 SE 4 4 1016.1 - 0.0 - - - - - - -
30/06:00am 21.8 SE 4 6 1016.1 - 0.0 - - - - - - -
30/05:30am 22.4 ESE 5 7 1016.0 - 0.0 - - - - - - -
30/05:00am 22.9 SE 7 10 1015.9 - 0.0 - - - - - - -
30/04:30am 23.4 SE 8 12 1016.0 - 0.0 - - - - - - -
30/04:00am 23.4 ESE 7 12 1016.1 - 0.0 - - - - - - -
30/03:30am 23.4 ESE 7 10 1016.2 - 0.0 - - - - - - -
30/03:00am 23.7 ESE 7 11 1016.4 - 0.0 - - - - - - -
30/02:30am 23.8 ESE 9 13 1016.5 - 0.0 - - - - - - -
30/02:00am 23.6 ESE 8 11 1016.5 - 0.0 - - - - - - -
30/01:30am 23.3 ESE 7 10 1016.7 - 0.0 - - - - - - -
30/01:00am 23.4 ESE 5 7 1016.7 - 0.0 - - - - - - -
30/12:30am 23.4 SE 5 7 1016.6 - 0.0 - - - - - - -
30/12:00am 24.4 ESE 5 8 1016.4 - 0.0 - - - - - - -
 
Date/Time
CST
Temp

°C
Wind Pressure Rain
since 9am
mm
Weather Cloud Vis
km
Sea
Height
m
Swell
Dir
 
Speed
knots
Gust
knots
hPa Trend Height
m
Period
s
Dir
29/11:30pm 24.5 E 5 7 1016.4 - 0.0 - - - - - - -
29/11:00pm 24.4 E 5 9 1016.5 - 0.0 - - - - - - -
29/10:30pm 24.4 E 5 7 1016.5 - 0.0 - - - - - - -

Other Formats:

Comma delimited format used in spreadsheet applications
http://www.bom.gov.au/fwo/IDD60701/IDD60701.94139.axf

JavaScript Object Notation format (JSON) in row-major order
http://www.bom.gov.au/fwo/IDD60701/IDD60701.94139.json